Bontekoning — PH9144 — position and weather

sailwx.info

Track history (hours):
 
Tides and Currents Weather Stations Pressure Air Temp Water Temp Dewpoint Dewpoint Depression Visibility Wind Speed Wind Dir Waves Ship Positions

Bontekoning

Last reported at 2017-Dec-02 17:09 UTC. Time now 2017-Dec-12 23:37 UTC.
Position N 28°08' W 015°26'.
Warning: this ship's position is 10 days out of date.

; draft 2.6 m.

Type: Sailing vessel. MMSI: 244107000.

Date/timePositionNaut miles runAvg speedWind from/ knotsBaromVisibWave heightAir tempDewpointWater temp
2017-Dec-02 17:09N 28°08' W 015°26'0 0.0
2017-Dec-02 17:00N 28°08' W 015°26'0 0.0
2017-Dec-02 16:30N 28°08' W 015°26'0 0.0
2017-Dec-02 16:00N 28°08' W 015°25'1 1.1
2017-Dec-02 15:30N 28°07' W 015°25'2 4.7
2017-Dec-02 15:00N 28°09' W 015°23'3 5.5
2017-Dec-02 14:30N 28°12' W 015°25'3 5.7
2017-Dec-02 14:00N 28°12' W 015°28'3 6.1
2017-Dec-02 13:30N 28°12' W 015°32'3 6.0
2017-Dec-02 13:00N 28°13' W 015°35'3 5.7
2017-Dec-02 12:30N 28°13' W 015°38'3 5.4
2017-Dec-02 12:00N 28°12' W 015°41'  
Track history (hours):
 
Tides and Currents Weather Stations Pressure Air Temp Water Temp Dewpoint Dewpoint Depression Visibility Wind Speed Wind Dir Waves Ship Positions

Bontekoning

Last reported at 2017-Dec-02 17:09 UTC. Time now 2017-Dec-12 23:37 UTC.
Position N 28°08' W 015°26'.
Warning: this ship's position is 10 days out of date.

; draft 2.6 m.

Type: Sailing vessel. MMSI: 244107000.

Date/timePositionNaut miles runAvg speedWind from/ knotsBaromVisibWave heightAir tempDewpointWater temp
2017-Dec-02 17:09N 28°08' W 015°26'0 0.0
2017-Dec-02 17:00N 28°08' W 015°26'0 0.0
2017-Dec-02 16:30N 28°08' W 015°26'0 0.0
2017-Dec-02 16:00N 28°08' W 015°25'1 1.1
2017-Dec-02 15:30N 28°07' W 015°25'2 4.7
2017-Dec-02 15:00N 28°09' W 015°23'3 5.5
2017-Dec-02 14:30N 28°12' W 015°25'3 5.7
2017-Dec-02 14:00N 28°12' W 015°28'3 6.1
2017-Dec-02 13:30N 28°12' W 015°32'3 6.0
2017-Dec-02 13:00N 28°13' W 015°35'3 5.7
2017-Dec-02 12:30N 28°13' W 015°38'3 5.4
2017-Dec-02 12:00N 28°12' W 015°41'  

Dump ship's entire track history